• Join FlightAware (Why Join?)
  • Login
  • US Flag 
06:53PM EDT


 

Airport Tracker/Info


-or-


 

Live Flight TrackerFlight Track Log ✈ VIR19 ✈ 12-Mar-2014 ✈ EGLL / LHR - KSFO

Flight Track Log - Related Links

Times and Time Zones

All times are in EDT time to prevent confusion due to time zone crossing. See the VIR19 flight status page for this flight to view local times or setup timezone preferences in your user account.

Time Position Orientation Groundspeed Altitude Reporting Facility
EDT Latitude Longitude Course Direction KTS MPH feet Rate Location/Type
07:21AM 51.4649 -0.4463 90° East 167 192  Level FlightAware ADS-B
07:21AM 51.4650 -0.4239 88° East 169 194 400 1,320 Climbing FlightAware ADS-B
07:21AM 51.4670 -0.4120 69° East 168 193 600 1,800 Climbing FlightAware ADS-B
07:21AM 51.4675 -0.4108 62° Northeast 169 194 700 3,000 Climbing FlightAware ADS-B
07:21AM 51.4681 -0.4087 58° Northeast 168 193 800 1,500 Climbing FlightAware ADS-B (EGLF / FAB)
07:21AM 51.4688 -0.4066 56° Northeast 170 196 800 1,200 Level FlightAware ADS-B
07:21AM 51.4711 -0.4028 48° Northeast 169 194 900 960 Climbing FlightAware ADS-B
07:21AM 51.4720 -0.4008 45° Northeast 171 197 900 1,740 Level FlightAware ADS-B
07:22AM 51.4801 -0.3885 47° Northeast 173 199 1,400 2,100 Climbing FlightAware ADS-B
07:22AM 51.4790 -0.3903 47° Northeast 172 198 1,500 900 Climbing FlightAware ADS-B (EGTR / ETR)
07:22AM 51.4909 -0.3681 50° Northeast 187 215 1,700 1,020 Climbing FlightAware ADS-B (EGLF / FAB)
07:22AM 51.5021 -0.3472 50° Northeast 210 242 2,100 1,500 Climbing FlightAware ADS-B (EGLF / FAB)
07:23AM 51.5110 -0.3286 51° Northeast 216 249 2,500 1,560 Climbing FlightAware ADS-B (EGLC / LCY)
07:23AM 51.5180 -0.3146 53° Northeast 221 254 2,800 1,860 Climbing FlightAware ADS-B (EGLC / LCY)
07:23AM 51.5220 -0.3049 63° Northeast 221 254 3,100 2,400 Climbing FlightAware ADS-B (EGLC / LCY)
07:23AM 51.5251 -0.2929 68° East 221 254 3,400 2,280 Climbing FlightAware ADS-B (EGLC / LCY)
07:23AM 51.5273 -0.2836 73° East 219 252 3,600 1,980 Climbing FlightAware ADS-B (EGHL / QLA)
07:23AM 51.5295 -0.2744 66° East 221 254 3,800 1,380 Climbing FlightAware ADS-B
07:23AM 51.5333 -0.2644 53° Northeast 228 262 3,900 1,080 Climbing FlightAware ADS-B (EGLF / FAB)
07:23AM 51.5332 -0.2644 49° Northeast 229 264 4,000 1,500 Climbing FlightAware ADS-B (EGLC / LCY)
07:23AM 51.5378 -0.2568 39° Northeast 233 268 4,100 660 Climbing FlightAware ADS-B (EGLC / LCY)
07:23AM 51.5438 -0.2498 29° Northeast 239 275 4,100 600 Level FlightAware ADS-B
07:24AM 51.5469 -0.2474 19° North 246 283 4,200 660 Climbing FlightAware ADS-B (EGLC / LCY)
07:24AM 51.5521 -0.2445 16° North 249 287 4,200 900 Level FlightAware ADS-B (EGLF / FAB)
07:24AM 51.5624 -0.2412 10° North 256 295 4,400 1,080 Climbing FlightAware ADS-B (EGLF / FAB)
07:24AM 51.5855 -0.2367 North 273 314 4,700 1,320 Climbing FlightAware ADS-B (EGLC / LCY)
07:24AM 51.6145 -0.2320 North 288 331 5,300 1,500 Climbing FlightAware ADS-B (EGLC / LCY)
07:25AM 51.6207 -0.2309 North 285 328 5,400 540 Climbing FlightAware ADS-B
07:25AM 51.6419 -0.2273 North 289 333 5,500 180 Climbing FlightAware ADS-B (EGLC / LCY)
07:25AM 51.6618 -0.2234 North 288 331 5,500  Level FlightAware ADS-B (EGLC / LCY)
07:25AM 51.6830 -0.2191 North 288 331 5,500  Level FlightAware ADS-B
07:25AM 51.6913 -0.2181 North 289 333 5,500  Level FlightAware ADS-B (EGHL / QLA)
07:26AM 51.7005 -0.2187 354° North 290 334 5,500 1,020 Level FlightAware ADS-B
07:26AM 51.7120 -0.2236 342° North 294 338 5,800 2,640 Climbing FlightAware ADS-B (EGWE)
07:26AM 51.7229 -0.2299 339° North 291 335 6,300 2,700 Climbing FlightAware ADS-B (EGSR)
07:26AM 51.7405 -0.2415 337° Northwest 293 337 6,900 2,160 Climbing FlightAware ADS-B
07:26AM 51.7479 -0.2466 336° Northwest 286 329 7,000 2,220 Climbing FlightAware ADS-B (EGHO)
07:26AM 51.7456 -0.2449 337° Northwest 294 338 7,200 2,400 Climbing FlightAware ADS-B (EGLC / LCY)
07:26AM 51.7715 -0.2631 337° Northwest 298 343 7,800 2,400 Climbing FlightAware ADS-B (EGLF / FAB)
07:27AM 51.7842 -0.2718 337° Northwest 299 344 8,200 2,400 Climbing FlightAware ADS-B (EGNA)
07:27AM 51.8059 -0.2864 337° Northwest 296 341 8,800 1,980 Climbing FlightAware ADS-B (EGHO)
07:27AM 51.8241 -0.2985 338° Northwest 307 353 9,200 2,040 Climbing FlightAware ADS-B
07:27AM 51.8392 -0.3081 337° Northwest 300 345 9,700 2,340 Climbing FlightAware ADS-B (EGHO)
07:28AM 51.8554 -0.3188 337° Northwest 302 348 10,100 1,200 Climbing FlightAware ADS-B (EGHO)
07:28AM 51.8766 -0.3327 338° Northwest 318 366 10,600 1,080 Climbing FlightAware ADS-B (EGTR / ETR)
07:29AM 51.9403 -0.3746 338° Northwest 358 412 11,300 1,320 Climbing FlightAware ADS-B
07:29AM 51.9588 -0.3870 338° Northwest 368 423 11,500 1,020 Climbing FlightAware ADS-B
07:29AM 52.0011 -0.4150 338° Northwest 388 447 12,000 1,140 Climbing FlightAware ADS-B
07:30AM 52.0404 -0.4414 331° Northwest 401 461 12,500 1,740 Climbing FlightAware ADS-B (EGLF / FAB)
07:30AM 52.0751 -0.4793 325° Northwest 402 463 13,200 1,860 Climbing FlightAware ADS-B (EGLF / FAB)
07:30AM 52.1254 -0.5399 323° Northwest 406 467 14,200 1,680 Climbing FlightAware ADS-B
07:31AM 52.1325 -0.5492 323° Northwest 408 470 14,200 1,800 Level FlightAware ADS-B (EGHO)
07:31AM 52.1903 -0.6156 324° Northwest 421 484 15,400 1,800 Climbing FlightAware ADS-B (EGHH / BOH)
07:32AM 52.2472 -0.6829 324° Northwest 427 491 16,400 1,800 Climbing FlightAware ADS-B
07:32AM 52.2531 -0.6904 324° Northwest 422 486 16,600 2,520 Climbing FlightAware ADS-B (EGHH / BOH)
07:32AM 52.2582 -0.6961 324° Northwest 422 486 16,700 1,980 Climbing FlightAware ADS-B (EGHO)
07:32AM 52.2674 -0.7054 324° Northwest 423 487 16,900 2,100 Climbing FlightAware ADS-B (EGHH / BOH)
07:32AM 52.2816 -0.7225 324° Northwest 423 487 17,200 3,240 Climbing FlightAware ADS-B (EGNR / CEG)
07:32AM 52.2859 -0.7282 323° Northwest 424 488 17,500 3,420 Climbing FlightAware ADS-B (EGSR)
07:32AM 52.3043 -0.7495 322° Northwest 423 487 18,000 1,620 Climbing FlightAware ADS-B (EGHO)
07:33AM 52.3543 -0.8118 324° Northwest 441 507 18,700 1,680 Climbing FlightAware ADS-B
07:33AM 52.3674 -0.8255 325° Northwest 439 505 19,100 3,720 Climbing FlightAware ADS-B
07:33AM 52.3818 -0.8430 324° Northwest 439 505 19,700 2,160 Climbing FlightAware ADS-B (EGDM)
07:34AM 52.4347 -0.9053 325° Northwest 449 517 20,600 1,800 Climbing FlightAware ADS-B (EGXW / WTN)
07:34AM 52.4909 -0.9657 327° Northwest 461 531 21,600 2,280 Climbing FlightAware ADS-B (EGXP / SQZ)
07:34AM 52.5084 -0.9830 327° Northwest 464 534 22,200 2,340 Climbing FlightAware ADS-B (EGLF / FAB)
07:35AM 52.5289 -1.0059 325° Northwest 449 517 22,500 1,920 Climbing FlightAware ADS-B (EGHH / BOH)
07:35AM 52.5870 -1.0675 327° Northwest 472 543 23,600 2,220 Climbing FlightAware ADS-B
07:35AM 52.6138 -1.0973 326° Northwest 473 544 24,300 1,800 Climbing FlightAware ADS-B (EGLF / FAB)
07:36AM 52.6590 -1.1456 326° Northwest 481 554 24,800 1,320 Climbing FlightAware ADS-B (EGXP / SQZ)
07:36AM 52.6898 -1.1805 326° Northwest 487 560 25,200 1,980 Climbing FlightAware ADS-B (EGTR / ETR)
07:36AM 52.7151 -1.2074 326° Northwest 488 562 25,800 2,220 Climbing FlightAware ADS-B (EGWC)
07:36AM 52.7347 -1.2309 324° Northwest 487 560 26,100 1,260 Climbing FlightAware ADS-B (EGXP / SQZ)
07:37AM 52.7557 -1.2600 317° Northwest 490 564 26,300 1,080 Climbing FlightAware ADS-B (EGHO)
07:37AM 52.7695 -1.2836 315° West 487 560 26,500 1,740 Climbing FlightAware ADS-B (EGCD)
07:37AM 52.7935 -1.3237 320° Northwest 488 562 27,000 2,640 Climbing FlightAware ADS-B (EGBJ / GLO)
07:37AM 52.7999 -1.3345 315° West 492 566 27,300 1,560 Climbing FlightAware ADS-B
07:37AM 52.8171 -1.3641 315° West 494 568 27,400 1,260 Climbing FlightAware ADS-B
07:38AM 52.8651 -1.4433 315° West 501 577 28,200 1,680 Climbing FlightAware ADS-B (EGOW)
07:38AM 52.9147 -1.5279 315° West 501 577 29,100 1,860 Climbing FlightAware ADS-B (EGOW)
07:39AM 52.9386 -1.5657 316° Northwest 501 577 29,600 1,980 Climbing FlightAware ADS-B
07:39AM 52.9637 -1.6088 316° Northwest 499 574 30,100 1,980 Climbing FlightAware ADS-B
07:39AM 52.9833 -1.6370 319° Northwest 493 567 30,500 2,040 Climbing FlightAware ADS-B (EGOW)
07:39AM 53.0365 -1.7106 321° Northwest 497 572 31,500 1,860 Climbing FlightAware ADS-B (EGOW)
07:40AM 53.0886 -1.7829 319° Northwest 487 560 32,400 1,800 Climbing FlightAware ADS-B (EGOW)
07:40AM 53.1042 -1.8047 319° Northwest 489 563 32,700 1,860 Climbing FlightAware ADS-B (EGCD)
07:40AM 53.1269 -1.8366 320° Northwest 487 560 33,100 1,620 Climbing FlightAware ADS-B
07:41AM 53.1603 -1.8854 320° Northwest 485 558 33,600 1,080 Climbing FlightAware ADS-B
07:41AM 53.2105 -1.9553 320° Northwest 483 556 34,000 540 Climbing FlightAware ADS-B (EGCD)
07:41AM 53.2351 -1.9915 319° Northwest 484 557 34,000  Level FlightAware ADS-B
07:42AM 53.2446 -2.0035 319° Northwest 482 555 34,000  Level FlightAware ADS-B (EGBS)
07:42AM 53.2746 -2.0474 318° Northwest 475 547 34,000  Level FlightAware ADS-B (EGOW)
07:42AM 53.2822 -2.0596 318° Northwest 479 551 34,000  Level FlightAware ADS-B
07:42AM 53.2885 -2.0700 315° West 478 550 34,000  Level FlightAware ADS-B
07:42AM 53.3077 -2.1017 313° West 478 550 34,000  Level FlightAware ADS-B (EGCD)
07:42AM 53.3201 -2.1266 310° West 477 549 34,000  Level FlightAware ADS-B (EGXU / HRT)
07:42AM 53.3187 -2.1237 308° West 476 548 34,000  Level FlightAware ADS-B (EGTR / ETR)
07:42AM 53.3346 -2.1553 307° West 475 547 34,000  Level FlightAware ADS-B (EGBS)
07:43AM 53.3481 -2.1880 304° West 474 545 34,000  Level FlightAware ADS-B (EGCD)
07:43AM 53.3555 -2.2062 304° West 473 544 34,000  Level FlightAware ADS-B
07:43AM 53.3943 -2.3075 303° West 472 543 34,000  Level FlightAware ADS-B
07:44AM 53.4312 -2.4028 302° West 468 539 34,000  Level FlightAware ADS-B (EGOW)
07:44AM 53.4401 -2.4275 303° West 473 544 34,000  Level FlightAware ADS-B (EGCC / MAN)
07:44AM 53.4583 -2.4737 303° West 473 544 34,000  Level FlightAware ADS-B
07:44AM 53.4637 -2.4892 302° West 474 545 34,000  Level FlightAware ADS-B
07:45AM 53.5016 -2.5887 303° West 476 548 34,000  Level FlightAware ADS-B (EGAA / BFS)
07:45AM 53.5141 -2.6196 302° West 476 548 34,000  Level FlightAware ADS-B (EGOW)
07:45AM 53.5199 -2.6353 302° West 476 548 34,000  Level FlightAware ADS-B (EGPK / PIK)
07:45AM 53.5235 -2.6445 302° West 476 548 34,000  Level FlightAware ADS-B (EGCD)
07:46AM 53.5609 -2.7444 303° West 477 549 34,000  Level FlightAware ADS-B (EGXU / HRT)
07:46AM 53.5737 -2.7786 302° West 476 548 34,000  Level FlightAware ADS-B (EGCB)
07:46AM 53.5847 -2.8068 303° West 476 548 34,000  Level FlightAware ADS-B
07:46AM 53.5959 -2.8381 303° West 476 548 34,000  Level FlightAware ADS-B
07:46AM 53.6189 -2.8974 301° West 473 544 34,000  Level FlightAware ADS-B (EGOW)
07:47AM 53.6260 -2.9164 301° West 472 543 34,000  Level FlightAware ADS-B (EGCB)
07:47AM 53.6304 -2.9290 302° West 476 548 34,000  Level FlightAware ADS-B (EGBS)
07:47AM 53.6420 -2.9603 303° West 476 548 34,000  Level FlightAware ADS-B
07:47AM 53.6463 -2.9695 302° West 476 548 34,000  Level FlightAware ADS-B (EGAA / BFS)
07:47AM 53.6513 -2.9852 302° West 476 548 34,000  Level FlightAware ADS-B
07:47AM 53.6609 -3.0106 301° West 473 544 34,000  Level FlightAware ADS-B (EGNR / CEG)
07:47AM 53.6724 -3.0417 301° West 473 544 34,000  Level FlightAware ADS-B (EGCB)
07:47AM 53.6863 -3.0795 302° West 477 549 34,000  Level FlightAware ADS-B
07:48AM 53.6947 -3.1015 303° West 477 549 34,000  Level FlightAware ADS-B
07:48AM 53.6958 -3.1047 302° West 477 549 34,000  Level FlightAware ADS-B (EGAA / BFS)
07:48AM 53.7107 -3.1423 303° West 476 548 34,000  Level FlightAware ADS-B
07:48AM 53.7150 -3.1550 303° West 476 548 34,000  Level FlightAware ADS-B
07:48AM 53.7270 -3.1864 301° West 473 544 34,000  Level FlightAware ADS-B
07:48AM 53.7205 -3.1706 302° West 477 549 34,000  Level FlightAware ADS-B (EGPH / EDI)
07:48AM 53.7366 -3.2149 301° West 473 544 34,000  Level FlightAware ADS-B (EGNR / CEG)
07:48AM 53.7454 -3.2367 303° West 476 548 34,000  Level FlightAware ADS-B
07:48AM 53.7588 -3.2745 301° West 472 543 34,000  Level FlightAware ADS-B (EGPK / PIK)
07:49AM 53.7652 -3.2902 301° West 472 543 34,000  Level FlightAware ADS-B (EGNR / CEG)
07:49AM 53.7826 -3.3376 301° West 471 542 34,000  Level FlightAware ADS-B (EGPK / PIK)
07:49AM 53.7941 -3.3691 301° West 471 542 34,000  Level FlightAware ADS-B (EGOW)
07:49AM 53.8038 -3.3943 301° West 471 542 34,000  Level FlightAware ADS-B (EGPK / PIK)
07:49AM 53.8281 -3.4604 301° West 471 542 34,000  Level FlightAware ADS-B (EGPK / PIK)
07:50AM 53.8623 -3.5550 302° West 474 545 34,000  Level FlightAware ADS-B (EGXU / HRT)
07:50AM 53.8760 -3.5925 302° West 474 545 34,000  Level FlightAware ADS-B (EGBS)
07:50AM 53.8865 -3.6209 301° West 469 540 34,000  Level FlightAware ADS-B
07:50AM 53.8982 -3.6525 301° West 469 540 34,000  Level FlightAware ADS-B (EGOW)
07:51AM 53.9038 -3.6683 301° West 469 540 34,000  Level FlightAware ADS-B
07:51AM 53.9210 -3.7157 301° West 469 540 34,000  Level FlightAware ADS-B
07:51AM 53.9342 -3.7504 301° West 469 540 34,000  Level FlightAware ADS-B (EGNR / CEG)
07:51AM 53.9421 -3.7724 301° West 469 540 34,000  Level FlightAware ADS-B (EGOW)
07:51AM 53.9610 -3.8261 301° West 469 540 34,000  Level FlightAware ADS-B (EGPK / PIK)
07:51AM 53.9643 -3.8354 302° West 473 544 34,000  Level FlightAware ADS-B (EGXU / HRT)
07:52AM 54.0002 -3.9329 302° West 469 540 34,000  Level FlightAware ADS-B
07:52AM 54.0273 -4.0049 302° West 473 544 34,000  Level FlightAware ADS-B
07:53AM 54.0601 -4.0930 301° West 469 540 34,000  Level FlightAware ADS-B (EGNR / CEG)
07:53AM 54.0737 -4.1275 302° West 475 547 34,000  Level FlightAware ADS-B
07:54AM 54.1147 -4.2398 302° West 485 558 34,000  Level FlightAware ADS-B
07:54AM 54.1506 -4.3386 302° West 495 570 34,000  Level FlightAware ADS-B
07:55AM 54.1908 -4.4484 302° West 497 572 34,000  Level FlightAware ADS-B (EGNR / CEG)
07:55AM 54.2301 -4.5585 302° West 497 572 34,000  Level FlightAware ADS-B (EGPK / PIK)
07:56AM 54.2702 -4.6683 302° West 497 572 34,000  Level FlightAware ADS-B (EGAA / BFS)
07:56AM 54.3073 -4.7717 301° West 494 568 34,000  Level FlightAware ADS-B (EGAE / LDY)
07:56AM 54.3188 -4.8047 302° West 493 567 34,000  Level FlightAware ADS-B
07:57AM 54.3557 -4.9077 301° West 493 567 34,000  Level FlightAware ADS-B (EGPK / PIK)
07:57AM 54.3938 -5.0143 301° West 493 567 34,000  Level FlightAware ADS-B (EGAE / LDY)
07:58AM 54.4325 -5.1215 301° West 494 568 34,000  Level FlightAware ADS-B (EGPK / PIK)
07:58AM 54.4668 -5.2188 301° West 495 570 34,000  Level FlightAware ADS-B
07:59AM 54.5050 -5.3300 301° West 496 571 34,000  Level FlightAware ADS-B (EGPF / GLA)
08:00AM 54.5425 -5.4343 301° West 496 571 34,000  Level FlightAware ADS-B (EGAE / LDY)
08:00AM 54.5837 -5.5525 300° West 491 565 34,000  Level FlightAware ADS-B
08:00AM 54.5921 -5.5797 300° West 491 565 34,000  Level FlightAware ADS-B (EGPK / PIK)
08:01AM 54.6159 -5.6473 301° West 496 571 34,000  Level FlightAware ADS-B (EGAA / BFS)
08:01AM 54.6560 -5.7627 300° West 490 564 34,000  Level FlightAware ADS-B
08:02AM 54.6944 -5.8741 300° West 489 563 34,000  Level FlightAware ADS-B
08:02AM 54.7114 -5.9250 300° West 489 563 34,000  Level FlightAware ADS-B (EGPK / PIK)
08:02AM 54.7161 -5.9387 301° West 493 567 34,000  Level FlightAware ADS-B (EGPF / GLA)
08:02AM 54.7358 -5.9960 301° West 494 568 34,000  Level FlightAware ADS-B (EGAA / BFS)
08:03AM 54.7581 -6.0605 300° West 489 563 34,000  Level FlightAware ADS-B (EGPK / PIK)
08:03AM 54.7820 -6.1318 300° West 489 563 34,000  Level FlightAware ADS-B (EGPK / PIK)
08:03AM 54.8202 -6.2441 300° West 493 567 34,000  Level FlightAware ADS-B (EGPF / GLA)
08:04AM 54.8561 -6.3498 299° West 489 563 34,000  Level FlightAware ADS-B (EGAE / LDY)
08:05AM 54.8914 -6.4556 299° West 488 562 34,000  Level FlightAware ADS-B (EGAE / LDY)
08:05AM 54.9268 -6.5609 300° West 491 565 34,000  Level FlightAware ADS-B (EGPF / GLA)
08:06AM 54.9629 -6.6702 300° West 491 565 34,000  Level FlightAware ADS-B (EGPF / GLA)
08:06AM 55.0033 -6.7899 300° West 491 565 34,000  Level FlightAware ADS-B (EGAA / BFS)
08:07AM 55.0364 -6.8926 300° West 491 565 34,000  Level FlightAware ADS-B (EGPH / EDI)
08:07AM 55.0766 -7.0126 300° West 490 564 34,000  Level FlightAware ADS-B (EGAA / BFS)
08:08AM 55.1093 -7.1156 300° West 490 564 34,000  Level FlightAware ADS-B (EGPF / GLA)
08:08AM 55.1445 -7.2261 297° West 490 564 34,000  Level FlightAware ADS-B (EGAA / BFS)
08:09AM 55.1822 -7.3567 295° West 484 557 34,000  Level FlightAware ADS-B (EGAE / LDY)
08:09AM 55.2112 -7.4585 296° West 484 557 34,000  Level FlightAware ADS-B (EGPH / EDI)
08:10AM 55.2427 -7.5709 296° West 481 554 34,000  Level FlightAware ADS-B (EGAE / LDY)
08:11AM 55.2826 -7.7118 296° West 486 559 34,000  Level FlightAware ADS-B (EGAE / LDY)
08:11AM 55.3125 -7.8214 296° West 487 560 34,000  Level FlightAware ADS-B (EGAA / BFS)
08:12AM 55.3506 -7.9601 296° West 486 559 34,000  Level FlightAware ADS-B (EGAA / BFS)
08:12AM 55.3808 -8.0701 296° West 485 558 34,000  Level FlightAware ADS-B (EGAE / LDY)
08:13AM 55.4110 -8.1832 296° West 484 557 34,000  Level FlightAware UK
08:13AM 55.4230 -8.2261 295° West 484 557 34,000  Level FlightAware ADS-B (EGPK / PIK)
08:14AM 55.4551 -8.3433 295° West 484 557 34,000  Level FlightAware ADS-B (EGPH / EDI)
08:14AM 55.4940 -8.4887 295° West 482 555 34,000  Level FlightAware ADS-B (EGPH / EDI)
08:14AM 55.5057 -8.5311 294° West 478 550 34,000  Level FlightAware ADS-B (EGPK / PIK)
08:15AM 55.5465 -8.6870 295° West 480 552 34,000  Level FlightAware ADS-B (EGPH / EDI)
08:16AM 55.5817 -8.8179 294° West 475 547 34,000  Level FlightAware ADS-B (EGPK / PIK)
08:16AM 55.5899 -8.8496 294° West 474 545 34,000  Level FlightAware ADS-B (EGPK / PIK)
08:17AM 55.6441 -9.0577 295° West 478 550 34,000  Level FlightAware ADS-B (EGPH / EDI)
08:18AM 55.6813 -9.1999 295° West 479 551 34,000  Level FlightAware ADS-B (EGPH / EDI)
08:18AM 55.7173 -9.3388 295° West 481 554 34,000  Level FlightAware ADS-B (EGPH / EDI)
08:19AM 55.7462 -9.4501 294° West 481 554 34,000  Level FlightAware ADS-B (EGPH / EDI)
08:21AM 55.8854 -9.7534 309° West  Level Estimated
08:22AM 55.9654 -9.9294 309° West  Level Estimated
08:23AM 56.0451 -10.1061 309° West  Level Estimated
08:24AM 56.1246 -10.2836 309° West  Level Estimated
08:25AM 56.2038 -10.4618 309° West  Level Estimated
08:26AM 56.2828 -10.6407 309° West  Level Estimated
08:27AM 56.3615 -10.8204 308° West  Level Estimated
08:28AM 56.4399 -11.0008 308° West  Level Estimated
08:29AM 56.5181 -11.1819 308° West  Level Estimated
08:30AM 56.5960 -11.3638 308° West  Level Estimated
08:31AM 56.6737 -11.5465 308° West  Level Estimated
08:32AM 56.7510 -11.7299 308° West  Level Estimated
08:33AM 56.8282 -11.9140 307° West  Level Estimated
08:34AM 56.9050 -12.0989 307° West  Level Estimated
08:35AM 56.9816 -12.2846 307° West  Level Estimated
08:36AM 57.0578 -12.4711 307° West  Level Estimated
08:37AM 57.1339 -12.6583 307° West  Level Estimated
08:38AM 57.2096 -12.8462 307° West  Level Estimated
08:39AM 57.2850 -13.0350 307° West  Level Estimated
08:40AM 57.3602 -13.2245 306° West  Level Estimated
08:41AM 57.4351 -13.4148 306° West  Level Estimated
08:42AM 57.5097 -13.6059 306° West  Level Estimated
08:43AM 57.5840 -13.7977 306° West  Level Estimated
08:44AM 57.6580 -13.9904 306° West  Level Estimated
08:45AM 57.7317 -14.1838 306° West  Level Estimated
08:46AM 57.8051 -14.3780 305° West  Level Estimated
08:47AM 57.8782 -14.5730 305° West  Level Estimated
08:48AM 57.9510 -14.7688 305° West  Level Estimated
08:49AM 58.0236 -14.9654 305° West  Level Estimated
08:50AM 58.0958 -15.1628 305° West  Level Estimated
08:51AM 58.1677 -15.3610 305° West  Level Estimated
08:52AM 58.2393 -15.5600 304° West  Level Estimated
08:53AM 58.3106 -15.7598 304° West  Level Estimated
08:54AM 58.3816 -15.9604 304° West  Level Estimated
08:55AM 58.4522 -16.1618 304° West  Level Estimated
08:56AM 58.5226 -16.3640 304° West  Level Estimated
08:57AM 58.5926 -16.5670 304° West  Level Estimated
08:58AM 58.6623 -16.7709 303° West  Level Estimated
08:59AM 58.7317 -16.9755 303° West  Level Estimated
09:00AM 58.8007 -17.1810 303° West  Level Estimated
09:01AM 58.8694 -17.3873 303° West  Level Estimated
09:02AM 58.9379 -17.5944 303° West  Level Estimated
09:03AM 59.0059 -17.8023 303° West  Level Estimated
09:04AM 59.0736 -18.0111 302° West  Level Estimated
09:05AM 59.1410 -18.2206 302° West  Level Estimated
09:06AM 59.2081 -18.4310 302° West  Level Estimated
09:07AM 59.2748 -18.6423 302° West  Level Estimated
09:08AM 59.3412 -18.8543 302° West  Level Estimated
09:09AM 59.4072 -19.0672 301° West  Level Estimated
09:10AM 59.4729 -19.2809 301° West  Level Estimated
09:11AM 59.5382 -19.4954 301° West  Level Estimated
09:12AM 59.6032 -19.7108 301° West  Level Estimated
09:13AM 59.6678 -19.9270 301° West  Level Estimated
09:14AM 59.7321 -20.1440 301° West  Level Estimated
09:15AM 59.7960 -20.3619 300° West  Level Estimated
09:16AM 59.8595 -20.5806 300° West  Level Estimated
09:17AM 59.9227 -20.8001 300° West  Level Estimated
09:18AM 59.9855 -21.0205 300° West  Level Estimated
09:19AM 60.0479 -21.2417 300° West  Level Estimated
09:20AM 60.1100 -21.4638 299° West  Level Estimated
09:21AM 60.1717 -21.6866 299° West  Level Estimated
09:22AM 60.2330 -21.9103 299° West  Level Estimated
09:23AM 60.2940 -22.1349 299° West  Level Estimated
09:24AM 60.3545 -22.3603 299° West  Level Estimated
09:25AM 60.4147 -22.5865 298° West  Level Estimated
09:26AM 60.4745 -22.8136 298° West  Level Estimated
09:27AM 60.5339 -23.0415 298° West  Level Estimated
09:28AM 60.5930 -23.2702 298° West  Level Estimated
09:29AM 60.6516 -23.4997 298° West  Level Estimated
09:30AM 60.7098 -23.7301 297° West  Level Estimated
09:31AM 60.7677 -23.9614 297° West  Level Estimated
09:32AM 60.8251 -24.1934 297° West  Level Estimated
09:33AM 60.8821 -24.4263 297° West  Level Estimated
09:34AM 60.9388 -24.6601 297° West  Level Estimated
09:35AM 60.9950 -24.8946 296° West  Level Estimated
09:36AM 61.0508 -25.1300 296° West  Level Estimated
09:37AM 61.1062 -25.3662 296° West  Level Estimated
09:38AM 61.1612 -25.6033 296° West  Level Estimated
09:39AM 61.2158 -25.8411 296° West  Level Estimated
09:40AM 61.2700 -26.0798 295° West  Level Estimated
09:41AM 61.3237 -26.3193 295° West  Level Estimated
09:42AM 61.3770 -26.5597 295° West  Level Estimated
09:43AM 61.4299 -26.8008 295° West  Level Estimated
09:44AM 61.4824 -27.0428 295° West  Level Estimated
09:45AM 61.5344 -27.2855 294° West  Level Estimated
09:46AM 61.5860 -27.5291 294° West  Level Estimated
09:47AM 61.6372 -27.7735 294° West  Level Estimated
09:48AM 61.6879 -28.0187 294° West  Level Estimated
09:49AM 61.7382 -28.2647 293° West  Level Estimated
09:50AM 61.7881 -28.5115 293° West  Level Estimated
09:51AM 61.8374 -28.7591 293° West  Level Estimated
09:52AM 61.8864 -29.0075 293° West  Level Estimated
09:53AM 61.9349 -29.2568 293° West  Level Estimated
09:54AM 61.9830 -29.5067 292° West  Level Estimated
09:55AM 62.0306 -29.7575 292° West  Level Estimated
09:56AM 62.0777 -30.0091 292° West  Level Estimated
09:57AM 62.1244 -30.2614 292° West  Level Estimated
09:58AM 62.1706 -30.5145 291° West  Level Estimated
09:59AM 62.2164 -30.7684 291° West  Level Estimated
10:00AM 62.2617 -31.0230 291° West  Level Estimated
10:01AM 62.3065 -31.2784 291° West  Level Estimated
10:02AM 62.3509 -31.5346 291° West  Level Estimated
10:03AM 62.3948 -31.7915 290° West  Level Estimated
10:04AM 62.4382 -32.0491 290° West  Level Estimated
10:05AM 62.4811 -32.3076 290° West  Level Estimated
10:06AM 62.5236 -32.5667 290° West  Level Estimated
10:07AM 62.5656 -32.8266 289° West  Level Estimated
10:08AM 62.6071 -33.0872 289° West  Level Estimated
10:09AM 62.6481 -33.3486 289° West  Level Estimated
10:10AM 62.6886 -33.6106 289° West  Level Estimated
10:11AM 62.7286 -33.8734 288° West  Level Estimated
10:12AM 62.7682 -34.1369 288° West  Level Estimated
10:13AM 62.8072 -34.4011 288° West  Level Estimated
10:14AM 62.8458 -34.6660 288° West  Level Estimated
10:15AM 62.8838 -34.9315 288° West  Level Estimated
10:16AM 62.9214 -35.1978 287° West  Level Estimated
10:17AM 62.9584 -35.4647 287° West  Level Estimated
10:18AM 62.9949 -35.7324 287° West  Level Estimated
10:19AM 63.0310 -36.0006 287° West  Level Estimated
10:20AM 63.0665 -36.2696 286° West  Level Estimated
10:21AM 63.1015 -36.5392 286° West  Level Estimated
10:22AM 63.1360 -36.8094 286° West  Level Estimated
10:23AM 63.1700 -37.0803 286° West  Level Estimated
10:24AM 63.2035 -37.3518 285° West  Level Estimated
10:25AM 63.2364 -37.6239 285° West  Level Estimated
10:26AM 63.2689 -37.8967 285° West  Level Estimated
10:27AM 63.3008 -38.1700 285° West  Level Estimated
10:28AM 63.3322 -38.4440 284° West  Level Estimated
10:29AM 63.3630 -38.7186 284° West  Level Estimated
10:30AM 63.3933 -38.9937 284° West  Level Estimated
10:31AM 63.4231 -39.2694 284° West  Level Estimated
10:32AM 63.4524 -39.5457 283° West  Level Estimated
10:33AM 63.4811 -39.8225 283° West  Level Estimated
10:34AM 63.5093 -40.0999 283° West  Level Estimated
10:35AM 63.5370 -40.3779 283° West  Level Estimated
10:36AM 63.5641 -40.6563 282° West  Level Estimated
10:37AM 63.5907 -40.9353 282° West  Level Estimated
10:38AM 63.6167 -41.2149 282° West  Level Estimated
10:39AM 63.6422 -41.4949 282° West  Level Estimated
10:40AM 63.6672 -41.7754 281° West  Level Estimated
10:41AM 63.6916 -42.0564 281° West  Level Estimated
10:42AM 63.7154 -42.3379 281° West  Level Estimated
10:43AM 63.7387 -42.6198 281° West  Level Estimated
10:44AM 63.7615 -42.9022 280° West  Level Estimated
10:45AM 63.7837 -43.1851 280° West  Level Estimated
10:46AM 63.8053 -43.4684 280° West  Level Estimated
10:47AM 63.8264 -43.7522 280° West  Level Estimated
10:48AM 63.8469 -44.0363 279° West  Level Estimated
10:49AM 63.8669 -44.3209 279° West  Level Estimated
10:50AM 63.8863 -44.6058 279° West  Level Estimated
10:51AM 63.9052 -44.8912 279° West  Level Estimated
10:52AM 63.9235 -45.1769 278° West  Level Estimated
10:53AM 63.9412 -45.4630 278° West  Level Estimated
10:54AM 63.9584 -45.7495 278° West  Level Estimated
10:55AM 63.9749 -46.0363 278° West  Level Estimated
10:56AM 63.9910 -46.3234 277° West  Level Estimated
10:57AM 64.0064 -46.6109 277° West  Level Estimated
10:58AM 64.0213 -46.8986 277° West  Level Estimated
10:59AM 64.0357 -47.1867 277° West  Level Estimated
11:00AM 64.0494 -47.4751 276° West  Level Estimated
11:01AM 64.0626 -47.7637 276° West  Level Estimated
11:02AM 64.0752 -48.0526 276° West  Level Estimated
11:03AM 64.0872 -48.3418 276° West  Level Estimated
11:04AM 64.0987 -48.6312 275° West  Level Estimated
11:05AM 64.1096 -48.9208 275° West  Level Estimated
11:06AM 64.1199 -49.2107 275° West  Level Estimated
11:07AM 64.1296 -49.5008 275° West  Level Estimated
11:08AM 64.1388 -49.7910 274° West  Level Estimated
11:09AM 64.1474 -50.0815 274° West  Level Estimated
11:10AM 64.1554 -50.3721 274° West  Level Estimated
11:11AM 64.1628 -50.6629 273° West  Level Estimated
11:12AM 64.1696 -50.9538 273° West  Level Estimated
11:13AM 64.1759 -51.2449 273° West  Level Estimated
11:14AM 64.1816 -51.5361 273° West  Level Estimated
11:15AM 64.1867 -51.8274 272° West  Level Estimated
11:16AM 64.1912 -52.1188 272° West  Level Estimated
11:17AM 64.1952 -52.4103 272° West  Level Estimated
11:18AM 64.1985 -52.7019 272° West  Level Estimated
11:19AM 64.2013 -52.9936 271° West  Level Estimated
11:20AM 64.2035 -53.2853 271° West  Level Estimated
11:21AM 64.2051 -53.5770 271° West  Level Estimated
11:22AM 64.2061 -53.8688 271° West  Level Estimated
11:23AM 64.2066 -54.1605 270° West  Level Estimated
11:24AM 64.2065 -54.4523 270° West  Level Estimated
11:25AM 64.2057 -54.7441 270° West  Level Estimated
11:26AM 64.2045 -55.0359 270° West  Level Estimated
11:27AM 64.2026 -55.3276 269° West  Level Estimated
11:28AM 64.2001 -55.6193 269° West  Level Estimated
11:29AM 64.1971 -55.9109 269° West  Level Estimated
11:30AM 64.1935 -56.2024 268° West  Level Estimated
11:31AM 64.1892 -56.4939 268° West  Level Estimated
11:32AM 64.1845 -56.7853 268° West  Level Estimated
11:33AM 64.1791 -57.0765 268° West  Level Estimated
11:34AM 64.1731 -57.3677 267° West  Level Estimated
11:35AM 64.1666 -57.6587 267° West  Level Estimated
11:36AM 64.1595 -57.9496 267° West  Level Estimated
11:37AM 64.1518 -58.2403 267° West  Level Estimated
11:38AM 64.1436 -58.5308 266° West  Level Estimated
11:39AM 64.1347 -58.8212 266° West  Level Estimated
11:40AM 64.1253 -59.1114 266° West  Level Estimated
11:41AM 64.1153 -59.4013 266° West  Level Estimated
11:42AM 64.1048 -59.6911 265° West  Level Estimated
11:43AM 64.0936 -59.9806 265° West  Level Estimated
11:44AM 64.0819 -60.2699 265° West  Level Estimated
11:45AM 64.0696 -60.5590 265° West  Level Estimated
11:46AM 64.0567 -60.8478 264° West  Level Estimated
11:47AM 64.0428 -61.1476 264° West  Level Estimated
11:48AM 64.0282 -61.4470 264° West  Level Estimated
11:49AM 64.0130 -61.7462 264° West  Level Estimated
11:50AM 63.9971 -62.0450 263° West  Level Estimated
11:51AM 63.9807 -62.3435 263° West  Level Estimated
11:52AM 63.9636 -62.6416 263° West  Level Estimated
11:53AM 63.9460 -62.9393 262° West  Level Estimated
11:54AM 63.9277 -63.2367 262° West  Level Estimated
11:55AM 63.9089 -63.5337 262° West  Level Estimated
11:56AM 63.8894 -63.8302 262° West  Level Estimated
11:57AM 63.8693 -64.1264 261° West  Level Estimated
11:58AM 63.8486 -64.4221 261° West  Level Estimated
11:59AM 63.8273 -64.7174 261° West  Level Estimated
12:00PM 63.8054 -65.0122 261° West  Level Estimated
12:01PM 63.7829 -65.3066 260° West  Level Estimated
12:02PM 63.7598 -65.6004 260° West  Level Estimated
12:03PM 63.7361 -65.8939 260° West  Level Estimated
12:04PM 63.7118 -66.1868 260° West  Level Estimated
12:05PM 63.6869 -66.4791 259° West  Level Estimated
12:06PM 63.6614 -66.7710 259° West  Level Estimated
12:07PM 63.6354 -67.0624 259° West  Level Estimated
12:08PM 63.6087 -67.3532 258° West  Level Estimated
12:09PM 63.5815 -67.6434 258° West  Level Estimated
12:10PM 63.5537 -67.9331 258° West  Level Estimated
12:11PM 63.5254 -68.2207 258° West  Level Estimated
12:12PM 63.4966 -68.5078 257° West  Level Estimated
12:13PM 63.4672 -68.7942 257° West  Level Estimated
12:14PM 63.4372 -69.0801 257° West  Level Estimated
12:15PM 63.4067 -69.3653 257° West  Level Estimated
12:16PM 63.3755 -69.6499 256° West  Level Estimated
12:17PM 63.3439 -69.9340 256° West  Level Estimated
12:18PM 63.3116 -70.2173 256° West  Level Estimated
12:19PM 63.2788 -70.5001 256° West  Level Estimated
12:20PM 63.2455 -70.7822 255° West  Level Estimated
12:21PM 63.2116 -71.0636 255° West  Level Estimated
12:22PM 63.1771 -71.3444 255° West  Level Estimated
12:23PM 63.1421 -71.6245 255° West  Level Estimated
12:24PM 63.1065 -71.9040 254° West  Level Estimated
12:25PM 63.0704 -72.1827 254° West  Level Estimated
12:26PM 63.0337 -72.4607 254° West  Level Estimated
12:27PM 62.9965 -72.7381 254° West  Level Estimated
12:28PM 62.9587 -73.0147 253° West  Level Estimated
12:29PM 62.9204 -73.2906 253° West  Level Estimated
12:30PM 62.8816 -73.5658 253° West  Level Estimated
12:31PM 62.8422 -73.8402 253° West  Level Estimated
12:32PM 62.8023 -74.1139 252° West  Level Estimated
12:33PM 62.7619 -74.3869 252° West  Level Estimated
12:34PM 62.7209 -74.6591 252° West  Level Estimated
12:35PM 62.6794 -74.9306 252° West  Level Estimated
12:36PM 62.6374 -75.2012 251° West  Level Estimated
12:37PM 62.5949 -75.4712 251° West  Level Estimated
12:38PM 62.5519 -75.7403 251° West  Level Estimated
12:39PM 62.5083 -76.0087 251° West  Level Estimated
12:40PM 62.4642 -76.2762 250° West  Level Estimated
12:41PM 62.4196 -76.5430 250° West  Level Estimated
12:42PM 62.3745 -76.8090 250° West  Level Estimated
12:43PM 62.3289 -77.0742 250° West  Level Estimated
12:44PM 62.2828 -77.3385 250° West  Level Estimated
12:45PM 62.2362 -77.6021 249° West  Level Estimated
12:46PM 62.1891 -77.8648 249° West  Level Estimated
12:47PM 62.1415 -78.1267 249° West  Level Estimated
12:48PM 62.0935 -78.3878 249° West  Level Estimated
12:49PM 62.0449 -78.6481 248° West  Level Estimated
12:50PM 61.9958 -78.9075 248° West  Level Estimated
12:51PM 61.9463 -79.1661 248° West  Level Estimated
12:52PM 61.8962 -79.4239 248° West  Level Estimated
12:53PM 61.8457 -79.6808 247° West  Level Estimated
12:54PM 61.7947 -79.9368 247° West  Level Estimated
12:55PM 61.7432 -80.1920 247° West  Level Estimated
12:56PM 61.6913 -80.4464 247° West  Level Estimated
12:57PM 61.6389 -80.6998 247° West  Level Estimated
12:58PM 61.5860 -80.9525 246° West  Level Estimated
12:59PM 61.5327 -81.2042 246° West  Level Estimated
01:00PM 61.4789 -81.4551 246° West  Level Estimated
01:01PM 61.4246 -81.7051 246° West  Level Estimated
01:02PM 61.3699 -81.9543 245° Southwest  Level Estimated
01:03PM 61.3147 -82.2026 245° Southwest  Level Estimated
01:04PM 61.2591 -82.4500 245° Southwest  Level Estimated
01:05PM 61.2030 -82.6965 245° Southwest  Level Estimated
01:06PM 61.1465 -82.9421 245° Southwest  Level Estimated
01:07PM 61.0895 -83.1869 244° Southwest  Level Estimated
01:08PM 61.0321 -83.4308 244° Southwest  Level Estimated
01:09PM 60.9743 -83.6738 244° Southwest  Level Estimated
01:10PM 60.9160 -83.9159 244° Southwest  Level Estimated
01:11PM 60.8573 -84.1571 244° Southwest  Level Estimated
01:12PM 60.7981 -84.3974 243° Southwest  Level Estimated
01:13PM 60.7386 -84.6369 243° Southwest  Level Estimated
01:14PM 60.6786 -84.8754 243° Southwest  Level Estimated
01:15PM 60.6181 -85.1131 243° Southwest  Level Estimated
01:16PM 60.5573 -85.3499 242° Southwest  Level Estimated
01:17PM 60.4961 -85.5857 242° Southwest  Level Estimated
01:18PM 60.4344 -85.8207 242° Southwest  Level Estimated
01:19PM 60.3723 -86.0548 242° Southwest  Level Estimated
01:20PM 60.3098 -86.2880 242° Southwest  Level Estimated
01:21PM 60.2469 -86.5203 241° Southwest  Level Estimated
01:22PM 60.1836 -86.7517 241° Southwest  Level Estimated
01:23PM 60.1199 -86.9823 241° Southwest  Level Estimated
01:24PM 60.0558 -87.2119 241° Southwest  Level Estimated
01:25PM 59.9913 -87.4406 241° Southwest  Level Estimated
01:26PM 59.9264 -87.6685 240° Southwest  Level Estimated
01:27PM 59.8611 -87.8954 240° Southwest  Level Estimated
01:28PM 59.7954 -88.1215 240° Southwest  Level Estimated
01:29PM 59.7294 -88.3466 240° Southwest  Level Estimated
01:30PM 59.6629 -88.5709 240° Southwest  Level Estimated
01:31PM 59.5961 -88.7943 239° Southwest  Level Estimated
01:32PM 59.5289 -89.0168 239° Southwest  Level Estimated
01:33PM 59.4613 -89.2384 239° Southwest  Level Estimated
01:34PM 59.3934 -89.4591 239° Southwest  Level Estimated
01:35PM 59.3251 -89.6790 239° Southwest  Level Estimated
01:36PM 59.2564 -89.8979 239° Southwest  Level Estimated
01:37PM 59.1873 -90.1160 238° Southwest  Level Estimated
01:38PM 59.1179 -90.3332 238° Southwest  Level Estimated
01:39PM 59.0481 -90.5495 238° Southwest  Level Estimated
01:40PM 58.9780 -90.7649 238° Southwest  Level Estimated
01:41PM 58.9075 -90.9794 238° Southwest  Level Estimated
01:42PM 58.8366 -91.1931 237° Southwest  Level Estimated
01:43PM 58.7654 -91.4059 237° Southwest  Level Estimated
01:44PM 58.6938 -91.6179 237° Southwest  Level Estimated
01:45PM 58.6219 -91.8289 237° Southwest  Level Estimated
01:46PM 58.5497 -92.0391 237° Southwest  Level Estimated
01:47PM 58.4771 -92.2484 237° Southwest  Level Estimated
01:48PM 58.4042 -92.4569 236° Southwest  Level Estimated
01:49PM 58.3309 -92.6645 236° Southwest  Level Estimated
01:50PM 58.2573 -92.8712 236° Southwest  Level Estimated
01:51PM 58.1834 -93.0771 236° Southwest  Level Estimated
01:51PM 59.7000 -96.6000 235° Southwest 550 633 38,000  Level Edmonton Center
01:52PM 58.1091 -93.2821 236° Southwest  Level Estimated
01:52PM 59.6000 -96.7667 220° Southwest 500 575 38,000  Level Edmonton Center
01:53PM 58.0345 -93.4863 235° Southwest  Level Estimated
01:53PM 59.4833 -96.9500 219° Southwest 490 564 38,000  Level Edmonton Center
01:54PM 57.9596 -93.6896 235° Southwest  Level Estimated
01:54PM 59.4000 -97.1167 226° Southwest 480 552 38,000  Level Edmonton Center
01:55PM 57.8844 -93.8920 235° Southwest  Level Estimated
01:55PM 59.2833 -97.3000 219° Southwest 490 564 38,000  Level Edmonton Center
01:56PM 57.8088 -94.0936 235° Southwest  Level Estimated
01:56PM 59.1833 -97.5000 226° Southwest 500 575 38,000  Level Edmonton Center
01:57PM 57.7330 -94.2944 235° Southwest  Level Estimated
01:57PM 59.0667 -97.6500 213° Southwest 490 564 38,000  Level Edmonton Center
01:58PM 58.9667 -97.8333 223° Southwest 490 564 38,000  Level Edmonton Center
01:59PM 58.8500 -98.0333 222° Southwest 490 564 38,000  Level Edmonton Center
02:00PM 58.7667 -98.1833 223° Southwest 490 564 38,000  Level Edmonton Center
02:01PM 58.6500 -98.3333 214° Southwest 490 564 38,000  Level Edmonton Center
02:02PM 58.5333 -98.5167 219° Southwest 490 564 38,000  Level Edmonton Center
02:03PM 58.4500 -98.6667 223° Southwest 480 552 38,000  Level Edmonton Center
02:04PM 58.3333 -98.8500 220° Southwest 480 552 38,000  Level Edmonton Center
02:05PM 58.2167 -99.0000 214° Southwest 480 552 38,000  Level Edmonton Center
02:06PM 58.1167 -99.1667 221° Southwest 480 552 38,000  Level Edmonton Center
02:07PM 58.0500 -99.3333 233° Southwest 490 564 38,000  Level Winnipeg Center
02:08PM 57.9500 -99.4833 219° Southwest 490 564 38,000  Level Winnipeg Center
02:09PM 57.8500 -99.6333 219° Southwest 490 564 38,000  Level Winnipeg Center
02:10PM 57.7500 -99.8167 224° Southwest 490 564 38,000  Level Winnipeg Center
02:11PM 57.6500 -99.9667 219° Southwest 490 564 38,000  Level Winnipeg Center
02:12PM 57.5167 -100.1333 214° Southwest 490 564 38,000  Level Winnipeg Center
02:13PM 57.4167 -100.2833 219° Southwest 490 564 38,000  Level Winnipeg Center
02:14PM 57.3167 -100.4667 225° Southwest 500 575 38,000  Level Winnipeg Center
02:15PM 57.1833 -100.6000 208° Southwest 500 575 38,000  Level Winnipeg Center
02:16PM 57.0833 -100.7500 219° Southwest 500 575 38,000  Level Winnipeg Center
02:17PM 56.9833 -100.9167 222° Southwest 500 575 38,000  Level Winnipeg Center
02:18PM 56.8667 -101.0667 215° Southwest 500 575 38,000  Level Winnipeg Center
02:19PM 56.7500 -101.2000 212° Southwest 500 575 38,000  Level Winnipeg Center
02:20PM 56.6333 -101.3167 209° Southwest 500 575 38,000  Level Winnipeg Center
02:21PM 56.5167 -101.4500 212° Southwest 500 575 38,000  Level Winnipeg Center
02:22PM 56.3833 -101.5833 209° Southwest 500 575 38,000  Level Winnipeg Center
02:23PM 56.2667 -101.7000 209° Southwest 480 552 38,000  Level Winnipeg Center
02:24PM 56.1667 -101.8333 217° Southwest 480 552 38,000  Level Winnipeg Center
02:25PM 56.0167 -101.9333 200° South 480 552 38,000  Level Winnipeg Center
02:26PM 55.9167 -102.0667 217° Southwest 480 552 38,000  Level Winnipeg Center
02:27PM 55.8000 -102.1667 206° Southwest 480 552 38,000  Level Winnipeg Center
02:28PM 55.6833 -102.2833 209° Southwest 480 552 38,000  Level Winnipeg Center
02:29PM 55.5667 -102.4167 213° Southwest 490 564 38,000  Level Winnipeg Center
02:30PM 55.4333 -102.5333 206° Southwest 500 575 38,000  Level Winnipeg Center
02:31PM 55.3000 -102.6333 203° Southwest 500 575 38,000  Level Winnipeg Center
02:32PM 55.1833 -102.7667 213° Southwest 510 587 38,000  Level Winnipeg Center
02:33PM 55.0833 -102.8667 210° Southwest 500 575 38,000  Level Winnipeg Center
02:34PM 54.9500 -103.0000 210° Southwest 510 587 38,000  Level Winnipeg Center
02:35PM 54.8333 -103.1000 206° Southwest 500 575 38,000  Level Winnipeg Center
02:36PM 54.6833 -103.2167 204° Southwest 500 575 38,000  Level Winnipeg Center
02:37PM 54.5667 -103.3500 214° Southwest 500 575 38,000  Level Winnipeg Center
02:38PM 54.4500 -103.4500 206° Southwest 500 575 38,000  Level Winnipeg Center
02:39PM 54.3333 -103.5667 210° Southwest 500 575 38,000  Level Winnipeg Center
02:40PM 54.2167 -103.6667 207° Southwest 500 575 38,000  Level Winnipeg Center
02:41PM 54.0833 -103.8000 210° Southwest 500 575 38,000  Level Winnipeg Center
02:42PM 53.9667 -103.9167 210° Southwest 490 564 38,000  Level Winnipeg Center
02:43PM 53.8500 -104.0167 207° Southwest 490 564 38,000  Level Winnipeg Center
02:44PM 53.7333 -104.1000 203° Southwest 490 564 38,000  Level Winnipeg Center
02:45PM 53.6000 -104.2167 207° Southwest 490 564 38,000  Level Winnipeg Center
02:46PM 53.4833 -104.3500 214° Southwest 490 564 38,000  Level Winnipeg Center
02:47PM 53.3500 -104.4333 200° South 490 564 38,000  Level Winnipeg Center
02:48PM 53.2333 -104.5333 207° Southwest 480 552 38,000  Level Winnipeg Center
02:49PM 53.1167 -104.6500 211° Southwest 480 552 38,000  Level Winnipeg Center
02:50PM 52.9833 -104.7333 201° Southwest 490 564 38,000  Level Winnipeg Center
02:51PM 52.8833 -104.8500 215° Southwest 490 564 38,000  Level Winnipeg Center
02:52PM 52.7667 -104.9500 207° Southwest 490 564 38,000  Level Winnipeg Center
02:53PM 52.6333 -105.0667 208° Southwest 490 564 38,000  Level Winnipeg Center
02:54PM 52.5000 -105.1667 205° Southwest 500 575 38,000  Level Winnipeg Center
02:55PM 52.3833 -105.2667 208° Southwest 500 575 38,000  Level Winnipeg Center
02:56PM 52.2667 -105.3500 204° Southwest 500 575 38,000  Level Winnipeg Center
02:57PM 52.1333 -105.4667 208° Southwest 500 575 38,000  Level Winnipeg Center
02:58PM 52.0167 -105.5500 204° Southwest 500 575 38,000  Level Winnipeg Center
02:59PM 51.9000 -105.6833 215° Southwest 490 564 38,000  Level Winnipeg Center
03:00PM 51.7833 -105.8000 212° Southwest 480 552 38,000  Level Winnipeg Center
03:01PM 51.7000 -105.9500 228° Southwest 480 552 38,000  Level Winnipeg Center
03:02PM 51.5833 -106.0833 215° Southwest 490 564 38,000  Level Winnipeg Center
03:03PM 51.4833 -106.2333 223° Southwest 490 564 38,000  Level Winnipeg Center
03:04PM 51.3667 -106.3667 216° Southwest 490 564 38,000  Level Winnipeg Center
03:05PM 51.2667 -106.5000 220° Southwest 490 564 38,000  Level Winnipeg Center
03:06PM 51.1667 -106.6167 216° Southwest 490 564 38,000  Level Winnipeg Center
03:07PM 51.0500 -106.7500 216° Southwest 490 564 38,000  Level Winnipeg Center
03:08PM 50.9500 -106.9000 223° Southwest 480 552 38,000  Level Winnipeg Center
03:09PM 50.8500 -107.0000 212° Southwest 470 541 38,000  Level Winnipeg Center
03:10PM 50.7333 -107.1500 219° Southwest 470 541 38,000  Level Winnipeg Center
03:11PM 50.6333 -107.2833 220° Southwest 470 541 38,000  Level Winnipeg Center
03:12PM 50.5500 -107.4167 225° Southwest 470 541 38,000  Level Winnipeg Center
03:13PM 50.4333 -107.5167 209° Southwest 460 529 38,000  Level Winnipeg Center
03:14PM 50.3333 -107.6667 224° Southwest 460 529 38,000  Level Winnipeg Center
03:15PM 50.2333 -107.7667 213° Southwest 460 529 38,000  Level Winnipeg Center
03:16PM 50.1500 -107.9000 226° Southwest 460 529 38,000  Level Winnipeg Center
03:17PM 50.0500 -108.0333 221° Southwest 460 529 38,000  Level Winnipeg Center
03:18PM 49.9500 -108.1833 224° Southwest 460 529 38,000  Level Winnipeg Center
03:19PM 49.8500 -108.3167 221° Southwest 460 529 38,000  Level Winnipeg Center
03:20PM 49.7667 -108.4500 226° Southwest 460 529 38,000  Level Winnipeg Center
03:21PM 49.6667 -108.5833 221° Southwest 460 529 38,000  Level Winnipeg Center
03:22PM 49.5833 -108.6833 218° Southwest 450 518 38,000  Level Winnipeg Center
03:23PM 49.4833 -108.8500 227° Southwest 460 529 38,000  Level Winnipeg Center
03:24PM 49.3500 -108.9667 210° Southwest 460 529 38,000  Level Edmonton Center
03:25PM 49.2500 -109.0833 217° Southwest 460 529 38,000  Level Edmonton Center
03:26PM 49.1500 -109.2167 221° Southwest 450 518 38,000  Level Edmonton Center
03:27PM 49.1000 -109.3333 237° Southwest 450 518 38,000  Level Winnipeg Center
03:28PM 49.0000 -109.4667 221° Southwest 460 529 38,000  Level Winnipeg Center
03:29PM 48.9000 -109.5667 213° Southwest 450 518 38,000  Level Winnipeg Center
03:30PM 48.8000 -109.7000 221° Southwest 460 529 38,000  Level Winnipeg Center
03:31PM 48.7803 -109.7475 238° Southwest 456 525 38,000  Level Salt Lake Center
03:32PM 48.6839 -109.8722 221° Southwest 456 525 38,000  Level Salt Lake Center
03:33PM 48.5878 -109.9961 220° Southwest 456 525 38,000  Level Salt Lake Center
03:34PM 48.4914 -110.1194 220° Southwest 456 525 38,000  Level Salt Lake Center
03:35PM 48.3936 -110.2422 220° Southwest 457 526 38,000  Level Salt Lake Center
03:36PM 48.2978 -110.3658 221° Southwest 455 524 38,000  Level Salt Lake Center
03:37PM 48.2006 -110.4869 220° Southwest 457 526 38,000  Level Salt Lake Center
03:38PM 48.0850 -110.6325 220° Southwest 453 521 38,000  Level Salt Lake Center
03:39PM 47.9892 -110.7528 220° Southwest 452 520 38,000  Level Salt Lake Center
03:40PM 47.8928 -110.8719 220° Southwest 451 519 38,000  Level Salt Lake Center
03:41PM 47.7961 -110.9903 219° Southwest 451 519 38,000  Level Salt Lake Center
03:42PM 47.7000 -111.1089 220° Southwest 449 517 38,000  Level Salt Lake Center
03:43PM 47.5883 -111.2442 219° Southwest 451 519 38,000  Level Salt Lake Center
03:44PM 47.4975 -111.3533 219° Southwest 452 520 38,000  Level Salt Lake Center
03:45PM 47.3992 -111.4728 219° Southwest 455 524 38,000  Level Salt Lake Center
03:46PM 47.2983 -111.5875 218° Southwest 458 527 38,000  Level Salt Lake Center
03:47PM 47.1986 -111.7044 219° Southwest 459 528 38,000  Level Salt Lake Center
03:48PM 47.0772 -111.8433 218° Southwest 462 532 38,000  Level Salt Lake Center
03:49PM 46.9753 -111.9603 218° Southwest 465 535 38,000  Level Salt Lake Center
03:50PM 46.8733 -112.0758 218° Southwest 466 536 38,000  Level Salt Lake Center
03:51PM 46.7717 -112.1914 218° Southwest 464 534 38,000  Level Salt Lake Center
03:52PM 46.6706 -112.3044 218° Southwest 461 531 38,000  Level Salt Lake Center
03:53PM 46.5681 -112.4186 217° Southwest 463 533 38,000  Level Salt Lake Center
03:54PM 46.4467 -112.5536 217° Southwest 461 531 38,000  Level Salt Lake Center
03:55PM 46.3397 -112.6711 217° Southwest 462 532 38,000  Level Salt Lake Center
03:56PM 46.2367 -112.7856 218° Southwest 461 531 38,000  Level Salt Lake Center
03:57PM 46.1339 -112.8978 217° Southwest 457 526 38,000  Level Salt Lake Center
03:58PM 46.0300 -113.0114 217° Southwest 459 528 38,000  Level Salt Lake Center
03:59PM 45.9264 -113.1239 217° Southwest 460 529 38,000  Level Salt Lake Center
04:00PM 45.8219 -113.2361 217° Southwest 461 531 38,000  Level Salt Lake Center
04:01PM 45.7164 -113.3497 217° Southwest 466 536 38,000  Level Salt Lake Center
04:02PM 45.6033 -113.4689 216° Southwest 463 533 38,000  Level Salt Lake Center
04:03PM 45.5008 -113.5803 217° Southwest 458 527 38,000  Level Salt Lake Center
04:04PM 45.4142 -113.6711 216° Southwest 456 525 38,000  Level Salt Lake Center
04:06PM 45.2992 -113.7922 217° Southwest 458 527 38,000  Level Salt Lake Center
04:07PM 45.1869 -113.9097 216° Southwest 451 519 38,000  Level Salt Lake Center
04:08PM 45.0906 -114.0103 216° Southwest 448 516 38,000  Level Salt Lake Center
04:09PM 44.9942 -114.1239 220° Southwest 451 519 38,000  Level Salt Lake Center
04:10PM 44.9081 -114.2553 227° Southwest 455 524 38,000  Level Salt Lake Center
04:11PM 44.8206 -114.3825 226° Southwest 452 520 38,000  Level Salt Lake Center
04:12PM 44.7333 -114.5106 226° Southwest 453 521 38,000  Level Salt Lake Center
04:13PM 44.6283 -114.6633 226° Southwest 453 521 38,000  Level Salt Lake Center
04:14PM 44.5403 -114.7911 226° Southwest 454 522 38,000  Level Salt Lake Center
04:15PM 44.4544 -114.9164 226° Southwest 448 516 38,000  Level Salt Lake Center
04:16PM 44.3678 -115.0417 226° Southwest 448 516 38,000  Level Salt Lake Center
04:17PM 44.2808 -115.1669 226° Southwest 447 514 38,000  Level Salt Lake Center
04:18PM 44.1911 -115.2936 225° Southwest 456 525 38,000  Level Salt Lake Center
04:19PM 44.1033 -115.4192 226° Southwest 451 519 38,000  Level Salt Lake Center
04:20PM 44.0150 -115.5428 225° Southwest 449 517 38,000  Level Salt Lake Center
04:21PM 43.9103 -115.6914 226° Southwest 449 517 38,000  Level Salt Lake Center
04:22PM 43.8217 -115.8175 226° Southwest 454 522 38,000  Level Salt Lake Center
04:28PM 43.2498 -116.6036 225° Southwest 459 528 38,000  Level FlightAware ADS-B (KAHC)
04:29PM 43.2047 -116.6650 225° Southwest 459 528 38,000  Level FlightAware ADS-B (KAHC)
04:29PM 43.1586 -116.7263 225° Southwest 460 529 38,000  Level FlightAware ADS-B (KAHC)
04:30PM 43.0683 -116.8484 225° Southwest 459 528 38,000  Level FlightAware ADS-B (KAHC)
04:31PM 43.0228 -116.9095 225° Southwest 459 528 38,000  Level FlightAware ADS-B (KAHC)
04:31PM 42.9782 -116.9704 225° Southwest 459 528 38,000  Level FlightAware ADS-B (KAHC)
04:32PM 42.9324 -117.0312 225° Southwest 459 528 38,000  Level FlightAware ADS-B (KAHC)
04:33PM 42.8721 -117.1122 224° Southwest 460 529 38,000  Level FlightAware ADS-B (KAHC)
04:33PM 42.8262 -117.1730 224° Southwest 460 529 38,000  Level FlightAware ADS-B (KAHC)
04:34PM 42.7031 -117.3351 224° Southwest 463 533 38,000  Level FlightAware ADS-B (KAHC)
04:35PM 42.6576 -117.3958 224° Southwest 464 534 38,000  Level FlightAware ADS-B (KAHC)
04:35PM 42.5979 -117.4750 224° Southwest 465 535 38,000  Level FlightAware ADS-B (KAHC)
04:36PM 42.5510 -117.5360 224° Southwest 466 536 38,000  Level FlightAware ADS-B (KAHC)
04:37PM 42.4863 -117.6215 224° Southwest 468 539 38,000  Level FlightAware ADS-B (KAHC)
04:37PM 42.4431 -117.6764 224° Southwest 470 541 38,000  Level FlightAware ADS-B (KAHC)
04:38PM 42.3918 -117.7439 224° Southwest 471 542 38,000  Level FlightAware ADS-B (KAHC)
04:38PM 42.3432 -117.8072 224° Southwest 472 543 38,000  Level FlightAware ADS-B (KAHC)
04:39PM 42.2961 -117.8683 224° Southwest 472 543 38,000  Level FlightAware ADS-B (KAHC)
04:39PM 42.2477 -117.9316 224° Southwest 473 544 38,000  Level FlightAware ADS-B (KAHC)
04:40PM 42.1995 -117.9929 224° Southwest 474 545 38,000  Level FlightAware ADS-B (KAHC)
04:40PM 42.1520 -118.0540 224° Southwest 474 545 38,000  Level FlightAware ADS-B (KAHC)
04:41PM 42.0898 -118.1357 224° Southwest 475 547 38,000  Level FlightAware ADS-B (KAHC)
04:41PM 42.0419 -118.1969 224° Southwest 476 548 38,000  Level FlightAware ADS-B (KAHC)
04:42PM 41.9941 -118.2582 224° Southwest 476 548 38,000  Level FlightAware ADS-B (KAHC)
04:42PM 41.9462 -118.3193 224° Southwest 476 548 38,000  Level FlightAware ADS-B (KAHC)
04:43PM 41.8978 -118.3804 224° Southwest 477 549 38,000  Level FlightAware ADS-B (KAHC)
04:43PM 41.8489 -118.4434 224° Southwest 477 549 38,000  Level FlightAware ADS-B (KAHC)
04:44PM 41.8002 -118.5045 224° Southwest 478 550 38,000  Level FlightAware ADS-B (KAHC)
04:45PM 41.7312 -118.5920 224° Southwest 480 552 38,000  Level FlightAware ADS-B (KAHC)
04:45PM 41.6828 -118.6532 224° Southwest 480 552 38,000  Level FlightAware ADS-B (KAHC)
04:46PM 41.6342 -118.7142 224° Southwest 481 554 38,000  Level FlightAware ADS-B (KAHC)
04:46PM 41.5849 -118.7754 223° Southwest 481 554 38,000  Level FlightAware ADS-B (KAHC)
04:47PM 41.5373 -118.8366 223° Southwest 483 556 38,000  Level FlightAware ADS-B (KAHC)
04:47PM 41.4866 -118.8998 223° Southwest 483 556 38,000  Level FlightAware ADS-B (KAHC)
04:48PM 41.4195 -118.9831 223° Southwest 484 557 38,000  Level FlightAware ADS-B (KAHC)
04:48PM 41.3701 -119.0442 223° Southwest 485 558 38,000  Level FlightAware ADS-B (KAHC)
04:49PM 41.3213 -119.1053 223° Southwest 485 558 38,000  Level FlightAware ADS-B (KAHC)
04:49PM 41.2724 -119.1664 223° Southwest 486 559 38,000  Level FlightAware ADS-B (KAHC)
04:50PM 41.2228 -119.2274 223° Southwest 487 560 38,000  Level FlightAware ADS-B (KAHC)
04:50PM 41.1633 -119.3007 223° Southwest 489 563 38,000  Level FlightAware ADS-B (KAHC)
04:51PM 41.0965 -119.3824 223° Southwest 490 564 38,000  Level FlightAware ADS-B (KAHC)
04:52PM 41.0474 -119.4437 223° Southwest 490 564 38,000  Level FlightAware ADS-B (KAHC)
04:52PM 40.9946 -119.5070 223° Southwest 492 566 38,000  Level FlightAware ADS-B (KAHC)
04:53PM 40.9747 -119.5314 223° Southwest 493 567 38,000  Level FlightAware ADS-B (KAHC)
04:53PM 40.8699 -119.6601 223° Southwest 493 567 38,000  Level FlightAware ADS-B (KAHC)
04:54PM 40.8029 -119.7416 223° Southwest 493 567 38,000  Level FlightAware ADS-B (KAHC)
04:55PM 40.7193 -119.8433 223° Southwest 493 567 38,000  Level FlightAware ADS-B (KAHC)
04:55PM 40.6621 -119.9123 223° Southwest 492 566 38,000  Level FlightAware ADS-B (KAHC)
04:56PM 40.6075 -119.9769 223° Southwest 492 566 38,000  Level FlightAware ADS-B (KAHC)
04:56PM 40.5575 -120.0374 223° Southwest 492 566 38,000  Level FlightAware ADS-B (KAHC)
04:57PM 40.5074 -120.0979 222° Southwest 491 565 38,000  Level FlightAware ADS-B (KAHC)
04:58PM 40.4340 -120.1859 222° Southwest 490 564 38,000  Level FlightAware ADS-B (KAHC)
04:58PM 40.3663 -120.2658 222° Southwest 489 563 38,000  Level FlightAware ADS-B (KAHC)
04:59PM 40.3133 -120.3293 222° Southwest 488 562 38,000  Level FlightAware ADS-B (KAHC)
04:59PM 40.2633 -120.3889 222° Southwest 488 562 38,000  Level FlightAware ADS-B (KAHC)
05:00PM 40.1863 -120.4800 222° Southwest 487 560 38,000  Level FlightAware ADS-B (KAHC)
05:01PM 40.1361 -120.5391 222° Southwest 485 558 38,000  Level FlightAware ADS-B (KAHC)
05:01PM 40.0862 -120.5978 222° Southwest 482 555 38,000  Level FlightAware ADS-B (KAHC)
05:02PM 40.0288 -120.6657 222° Southwest 481 554 38,000  Level FlightAware ADS-B
05:02PM 39.9742 -120.7298 222° Southwest 479 551 38,000  Level FlightAware ADS-B (KAHC)
05:03PM 39.9246 -120.7876 222° Southwest 478 550 38,000  Level FlightAware ADS-B (KAHC)
05:03PM 39.8753 -120.8451 222° Southwest 476 548 38,000  Level FlightAware ADS-B (KAHC)
05:03PM 39.8649 -120.8564 221° Southwest 475 547 38,000  Level FlightAware ADS-B
05:04PM 39.8066 -120.9252 222° Southwest 474 545 38,000  Level FlightAware ADS-B (KAHC)
05:04PM 39.7569 -120.9822 222° Southwest 474 545 38,000  Level FlightAware ADS-B (KAHC)
05:05PM 39.6991 -121.0502 222° Southwest 471 542 38,000  Level FlightAware ADS-B (KAHC)
05:06PM 39.6498 -121.1064 222° Southwest 469 540 38,000  Level FlightAware ADS-B (KAHC)
05:06PM 39.6381 -121.1194 221° Southwest 468 539 38,000  Level FlightAware ADS-B
05:06PM 39.6106 -121.1513 222° Southwest 468 539 38,000 -360 Level FlightAware ADS-B (KAHC)
05:07PM 39.5296 -121.2448 222° Southwest 472 543 37,600 -1,140 Descending FlightAware ADS-B (KAHC)
05:07PM 39.4806 -121.3016 222° Southwest 480 552 36,800 -1,920 Descending FlightAware ADS-B (KAHC)
05:07PM 39.4704 -121.3130 221° Southwest 480 552 36,500 -1,140 Descending FlightAware ADS-B
05:08PM 39.4005 -121.3943 221° Southwest 514 592 36,000 -420 Descending FlightAware ADS-B
05:09PM 39.3280 -121.4757 221° Southwest 510 587 36,000  Level FlightAware ADS-B
05:09PM 39.2592 -121.5536 221° Southwest 504 580 36,000  Level FlightAware ADS-B (KRBL)
05:11PM 39.1427 -121.6864 222° Southwest 501 577 36,000  Level FlightAware ADS-B (KRBL)
05:12PM 39.0248 -121.8204 221° Southwest 499 574 36,000 -420 Level FlightAware ADS-B (KRBL)
05:12PM 38.9458 -121.9099 221° Southwest 488 562 35,500 -2,160 Descending FlightAware ADS-B (KRBL)
05:13PM 38.8360 -122.0332 221° Southwest 481 554 32,900 -2,700 Descending FlightAware ADS-B
05:14PM 38.7376 -122.1434 220° Southwest 477 549 30,400 -2,340 Descending FlightAware ADS-B
05:16PM 38.5600 -122.3395 221° Southwest 472 543 26,100 -2,280 Descending FlightAware ADS-B
05:17PM 38.4599 -122.4500 221° Southwest 460 529 23,700 -2,340 Descending FlightAware ADS-B
05:18PM 38.4016 -122.5151 220° Southwest 450 518 22,200 -2,460 Descending FlightAware ADS-B
05:19PM 38.3487 -122.5683 207° Southwest 448 516 20,400 -3,360 Descending FlightAware ADS-B
05:19PM 38.2549 -122.6127 189° South 464 534 17,700 -3,840 Descending FlightAware ADS-B
05:20PM 38.1629 -122.6284 187° South 462 532 15,400 -1,920 Descending FlightAware ADS-B
05:21PM 38.0456 -122.6472 187° South 407 468 14,500 -1,260 Descending FlightAware ADS-B
05:22PM 37.9757 -122.6591 187° South 395 455 13,300 -1,140 Descending FlightAware ADS-B
05:22PM 37.9200 -122.6647 166° South 370 426 13,000 -360 Descending FlightAware ADS-B
05:23PM 37.8732 -122.6437 148° Southeast 356 410 13,000 -180 Level FlightAware ADS-B
05:23PM 37.8324 -122.6010 140° Southeast 348 400 12,900  Descending FlightAware ADS-B
05:23PM 37.8460 -122.6154 140° Southeast 349 402 13,000  Climbing FlightAware ADS-B
05:24PM 37.7746 -122.5390 139° Southeast 350 403 12,900  Descending FlightAware ADS-B
05:24PM 37.8460 -122.6154 140° Southeast 349 402 13,000  Climbing FlightAware ADS-B
05:25PM 37.7287 -122.4900 140° Southeast 331 381 12,900 -120 Descending FlightAware ADS-B
05:25PM 37.6874 -122.4460 140° Southeast 310 357 12,900  Level FlightAware ADS-B
05:25PM 37.6884 -122.4473 140° Southeast 271 312 12,900  Level FlightAware ADS-B (KPAO)
05:26PM 37.6507 -122.4070 139° Southeast 257 296 12,900  Level FlightAware ADS-B
05:26PM 37.6330 -122.3880 140° Southeast 246 283 12,900  Level FlightAware ADS-B (KPAO)
05:26PM 37.6212 -122.3750 140° Southeast 234 269 12,900 -180 Level FlightAware ADS-B
05:27PM 37.6033 -122.3580 145° Southeast 233 268 12,800 -480 Descending FlightAware ADS-B
05:27PM 37.5981 -122.3540 153° Southeast 242 278 12,700 -1,140 Descending FlightAware ADS-B
05:27PM 37.5913 -122.3510 162° South 251 289 12,600 -960 Descending FlightAware ADS-B
05:27PM 37.5843 -122.3490 166° South 252 290 12,500 -960 Descending FlightAware ADS-B
05:27PM 37.5785 -122.3470 168° South 249 287 12,400 -1,020 Descending FlightAware ADS-B (KPAO)
05:28PM 37.5499 -122.3390 168° South 230 265 12,000 -1,200 Descending FlightAware ADS-B
05:28PM 37.5450 -122.3379 168° South 227 261 11,600 -1,620 Descending FlightAware ADS-B (KPAO)
05:28PM 37.5194 -122.3300 166° South 219 252 11,200 -1,680 Descending FlightAware ADS-B
05:29PM 37.4967 -122.3230 165° South 218 251 10,600 -1,620 Descending FlightAware ADS-B
05:29PM 37.4977 -122.3230 165° South 218 251 10,500 -1,500 Descending FlightAware ADS-B (KPAO)
05:29PM 37.4697 -122.3130 164° South 211 243 9,900 -1,620 Descending FlightAware ADS-B
05:29PM 37.4557 -122.3070 153° Southeast 205 236 9,400 -2,040 Descending FlightAware ADS-B
05:29PM 37.4534 -122.3050 146° Southeast 203 234 9,300 -2,040 Descending FlightAware ADS-B
05:29PM 37.4476 -122.2980 130° Southeast 199 229 9,000 -1,860 Descending FlightAware ADS-B
05:30PM 37.4456 -122.2940 122° Southeast 197 227 8,900 -1,740 Descending FlightAware ADS-B
05:30PM 37.4443 -122.2910 116° Southeast 196 226 8,800 -1,740 Descending FlightAware ADS-B
05:30PM 37.4431 -122.2870 113° Southeast 196 226 8,700 -2,100 Descending FlightAware ADS-B
05:30PM 37.4381 -122.2690 108° East 197 227 8,100 -1,860 Descending FlightAware ADS-B
05:30PM 37.4355 -122.2580 107° East 198 228 7,900 -1,500 Descending FlightAware ADS-B
05:30PM 37.4328 -122.2480 107° East 196 226 7,600 -1,680 Descending FlightAware ADS-B
05:30PM 37.4296 -122.2330 105° East 195 224 7,300 -1,440 Descending FlightAware ADS-B
05:31PM 37.4279 -122.2256 104° East 193 222 7,100 -1,140 Descending FlightAware ADS-B (KPAO)
05:31PM 37.4261 -122.2170 104° East 193 222 7,000 -1,140 Descending FlightAware ADS-B
05:31PM 37.4229 -122.2010 104° East 192 221 6,700 -1,440 Descending FlightAware ADS-B
05:31PM 37.4216 -122.1940 103° East 192 221 6,500 -1,800 Descending FlightAware ADS-B
05:31PM 37.4210 -122.1900 98° East 191 220 6,400 -780 Descending FlightAware ADS-B
05:31PM 37.4209 -122.1850 92° East 191 220 6,400 -900 Level FlightAware ADS-B
05:31PM 37.4210 -122.1820 85° East 191 220 6,300 -1,800 Descending FlightAware ADS-B
05:31PM 37.4223 -122.1740 76° East 192 221 6,100 -1,680 Descending FlightAware ADS-B
05:31PM 37.4239 -122.1690 68° East 193 222 6,000 -1,380 Descending FlightAware ADS-B
05:32PM 37.4257 -122.1650 61° Northeast 194 223 5,900 -720 Descending FlightAware ADS-B
05:32PM 37.4283 -122.1600 53° Northeast 197 227 5,900  Level FlightAware ADS-B
05:32PM 37.4283 -122.1604 53° Northeast 197 227 5,900 -1,500 Level FlightAware ADS-B (KPAO)
05:32PM 37.4305 -122.1580 45° Northeast 199 229 5,800 -1,740 Descending FlightAware ADS-B
05:32PM 37.4339 -122.1540 37° Northeast 200 230 5,700 -780 Descending FlightAware ADS-B
05:32PM 37.4366 -122.1520 29° Northeast 201 231 5,700 -1,020 Level FlightAware ADS-B
05:32PM 37.4395 -122.1500 24° Northeast 202 232 5,600 -1,740 Descending FlightAware ADS-B
05:32PM 37.4423 -122.1490 19° North 204 235 5,500 -900 Descending FlightAware ADS-B
05:32PM 37.4451 -122.1490 12° North 203 234 5,500  Level FlightAware ADS-B
05:32PM 37.4442 -122.1488 13° North 204 235 5,500 -2,040 Level FlightAware ADS-B (KPAO)
05:32PM 37.4479 -122.1480 North 204 235 5,400 -2,400 Descending FlightAware ADS-B
05:32PM 37.4509 -122.1480 North 203 234 5,300 -1,020 Descending FlightAware ADS-B
05:32PM 37.4541 -122.1480 359° North 204 235 5,300 -1,500 Level FlightAware ADS-B
05:32PM 37.4583 -122.1480 355° North 206 237 5,100 -1,500 Descending FlightAware ADS-B
05:32PM 37.4617 -122.1490 351° North 207 238 5,100 -1,020 Level FlightAware ADS-B
05:32PM 37.4631 -122.1492 349° North 207 238 5,000 -2,040 Descending FlightAware ADS-B (KPAO)
05:32PM 37.4673 -122.1500 347° North 207 238 4,900 -1,020 Descending FlightAware ADS-B
05:32PM 37.4701 -122.1510 345° North 205 236 4,900 -480 Level FlightAware ADS-B
05:33PM 37.4788 -122.1550 341° North 198 228 4,800 -720 Descending FlightAware ADS-B
05:33PM 37.4854 -122.1580 338° Northwest 193 222 4,700 -840 Descending FlightAware ADS-B
05:33PM 37.4975 -122.1640 336° Northwest 180 207 4,500 -1,080 Descending FlightAware ADS-B
05:33PM 37.5070 -122.1700 335° Northwest 176 203 4,200 -1,740 Descending FlightAware ADS-B
05:33PM 37.5189 -122.1760 336° Northwest 181 208 3,700 -1,800 Descending FlightAware ADS-B
05:34PM 37.5278 -122.1810 336° Northwest 180 207 3,400 -1,200 Descending FlightAware ADS-B
05:34PM 37.5302 -122.1830 334° Northwest 180 207 3,400 -1,020 Level FlightAware ADS-B
05:34PM 37.5326 -122.1850 330° Northwest 180 207 3,300 -1,740 Descending FlightAware ADS-B
05:34PM 37.5350 -122.1870 324° Northwest 180 207 3,200 -1,740 Descending FlightAware ADS-B
05:34PM 37.5373 -122.1890 319° Northwest 180 207 3,100 -1,740 Descending FlightAware ADS-B
05:34PM 37.5395 -122.1920 311° West 180 207 3,000 -780 Descending FlightAware ADS-B
05:34PM 37.5412 -122.1950 307° West 178 205 3,000 -1,500 Level FlightAware ADS-B
05:34PM 37.5471 -122.2050 305° West 180 207 2,600 -1,620 Descending FlightAware ADS-B
05:34PM 37.5520 -122.2150 301° West 183 211 2,400 -1,380 Descending FlightAware ADS-B
05:34PM 37.5550 -122.2210 299° West 181 208 2,200 -1,500 Descending FlightAware ADS-B
05:35PM 37.5569 -122.2260 298° West 179 206 2,100 -960 Descending FlightAware ADS-B
05:35PM 37.5597 -122.2340 296° West 175 201 2,000 -840 Descending FlightAware ADS-B
05:35PM 37.5653 -122.2470 296° West 174 200 1,800 -1,020 Descending FlightAware ADS-B
05:35PM 37.5710 -122.2620 298° West 175 201 1,500 -900 Descending FlightAware ADS-B
05:35PM 37.5753 -122.2720 298° West 167 192 1,400 -720 Descending FlightAware ADS-B
05:36PM 37.5806 -122.2840 298° West 157 181 1,200 -900 Descending FlightAware ADS-B
05:36PM 37.5870 -122.3000 297° West 152 175 900 -840 Descending FlightAware ADS-B
05:36PM 37.5927 -122.3130 298° West 143 165 700 -720 Descending FlightAware ADS-B
05:37PM 37.5983 -122.3270 297° West 146 168 500 -600 Descending FlightAware ADS-B
05:37PM 37.6026 -122.3360 299° West 145 167 400 -660 Descending FlightAware ADS-B
05:37PM 37.6073 -122.3470 298° West 141 162 200 -840 Descending FlightAware ADS-B